Time;durP1;ratioP1;P1;durP2;ratioP2;P2;SDS_P1;SDS_P2;PMS_P1;PMS_P2;Temp;Humidity;BMP_temperature;BMP_pressure;BME280_temperature;BME280_humidity;BME280_pressure;Samples;Min_cycle;Max_cycle;Signal;HPM_P1;HPM_P2
2021/11/12 00:15:52;;;;;;;68.95;39.08;;;;;;;7.53;100.00;102215.75;10583600;28;20047;-60
2021/11/12 00:20:56;;;;;;;67.60;40.78;;;;;;;7.40;100.00;102205.59;10584038;28;20406;-59
2021/11/12 00:26:01;;;;;;;72.68;41.65;;;;;;;7.24;100.00;102192.03;10565123;28;20059;-58
2021/11/12 00:31:50;;;;;;;67.10;38.80;;;;;;;7.16;100.00;102186.16;10582968;28;20118;-59
2021/11/12 00:36:49;;;;;;;74.22;39.75;;;;;;;7.42;100.00;102182.13;10574738;28;20104;-61
2021/11/12 00:42:17;;;;;;;68.32;43.20;;;;;;;7.15;100.00;102171.41;10582587;28;20062;-59
2021/11/12 00:47:52;;;;;;;75.90;40.22;;;;;;;7.16;100.00;102172.25;10582019;28;20384;-60
2021/11/12 00:57:58;;;;;;;81.43;44.97;;;;;;;7.12;100.00;102163.66;10582730;28;20130;-59
2021/11/12 01:03:01;;;;;;;72.05;41.97;;;;;;;7.00;100.00;102159.56;10582220;28;20047;-58
2021/11/12 01:08:06;;;;;;;80.10;44.35;;;;;;;7.01;100.00;102152.59;10563944;28;20051;-58
2021/11/12 01:13:08;;;;;;;84.13;45.17;;;;;;;6.90;100.00;102147.63;10581844;28;20051;-59
2021/11/12 01:18:11;;;;;;;83.78;44.15;;;;;;;6.80;100.00;102151.28;10570090;28;20051;-59
2021/11/12 01:23:14;;;;;;;83.43;45.95;;;;;;;6.77;100.00;102149.59;10590538;28;20054;-60
2021/11/12 01:28:16;;;;;;;84.93;45.65;;;;;;;6.71;100.00;102136.72;10590490;28;20040;-59
2021/11/12 01:33:19;;;;;;;78.85;42.13;;;;;;;6.62;100.00;102135.16;10589867;28;20499;-60
2021/11/12 01:38:21;;;;;;;75.10;42.47;;;;;;;6.45;100.00;102134.59;10589773;28;20487;-60
2021/11/12 01:43:25;;;;;;;89.13;44.50;;;;;;;6.31;100.00;102130.50;10589447;28;20517;-59
2021/11/12 01:54:24;;;;;;;94.55;41.97;;;;;;;6.30;100.00;102138.34;10589075;28;20047;-61
2021/11/12 01:59:12;;;;;;;75.28;38.95;;;;;;;6.05;100.00;102115.41;10588873;28;20058;-60
2021/11/12 02:04:26;;;;;;;69.90;35.65;;;;;;;6.01;100.00;102118.91;10570861;28;20040;-58
2021/11/12 02:09:29;;;;;;;75.55;39.97;;;;;;;6.03;100.00;102116.28;10570640;28;20059;-60
2021/11/12 02:14:32;;;;;;;76.47;40.63;;;;;;;6.16;100.00;102102.19;10588590;28;20061;-59
2021/11/12 02:19:36;;;;;;;74.57;40.83;;;;;;;6.03;100.00;102090.28;10588279;28;20044;-59
2021/11/12 02:24:45;;;;;;;75.00;40.92;;;;;;;6.02;100.00;102084.25;10588217;28;20044;-59
2021/11/12 02:29:52;;;;;;;77.82;42.97;;;;;;;6.03;100.00;102075.53;10588157;28;20044;-59
2021/11/12 02:35:00;;;;;;;79.10;40.75;;;;;;;5.91;100.00;102073.13;10587700;28;20056;-58
2021/11/12 02:40:04;;;;;;;68.07;38.28;;;;;;;5.89;100.00;102065.34;10586956;28;20051;-59
2021/11/12 02:45:07;;;;;;;73.97;40.72;;;;;;;5.92;100.00;102069.66;10587115;28;20047;-59
2021/11/12 02:50:11;;;;;;;86.25;42.22;;;;;;;5.89;100.00;102074.91;10586965;28;20377;-59
2021/11/12 02:55:14;;;;;;;65.30;37.67;;;;;;;6.07;100.00;102066.81;10586964;28;20055;-60
2021/11/12 03:00:22;;;;;;;69.43;36.03;;;;;;;5.83;100.00;102056.81;10586241;28;20051;-60
2021/11/12 03:05:24;;;;;;;73.53;37.50;;;;;;;5.81;100.00;102063.78;10586201;28;20055;-59
2021/11/12 03:10:27;;;;;;;66.35;37.67;;;;;;;5.73;100.00;102063.91;10586083;28;20044;-59
2021/11/12 03:15:30;;;;;;;75.97;40.53;;;;;;;5.58;100.00;102047.69;10586103;28;20384;-60
2021/11/12 03:20:33;;;;;;;77.95;40.65;;;;;;;5.57;100.00;102045.13;10585733;28;20043;-58
2021/11/12 05:44:31;;;;;;;45.00;28.30;;;;;;;3.17;100.00;101811.47;10581428;28;20043;-59
2021/11/12 05:49:49;;;;;;;42.83;27.38;;;;;;;3.14;100.00;101834.81;10581130;28;20054;-57
2021/11/12 05:55:06;;;;;;;45.75;29.30;;;;;;;3.03;100.00;101853.91;10580994;28;20052;-59
2021/11/12 06:00:14;;;;;;;45.00;29.20;;;;;;;2.96;100.00;101835.84;10581375;28;20123;-57
2021/11/12 06:05:17;;;;;;;47.35;28.17;;;;;;;2.96;100.00;101843.59;10588540;28;20054;-58
2021/11/12 06:10:19;;;;;;;50.08;28.88;;;;;;;2.91;100.00;101862.63;10588658;28;20433;-58
2021/11/12 06:15:22;;;;;;;49.33;28.73;;;;;;;2.83;100.00;101860.09;10588352;28;20493;-59
2021/11/12 06:20:24;;;;;;;55.25;27.35;;;;;;;2.70;100.00;101861.91;10588116;28;20050;-59
2021/11/12 06:25:27;;;;;;;45.85;27.70;;;;;;;2.54;100.00;101845.66;10588454;28;20048;-57
2021/11/12 06:30:30;;;;;;;47.20;27.23;;;;;;;2.55;100.00;101844.78;10569876;28;20051;-58
2021/11/12 06:35:32;;;;;;;44.28;27.83;;;;;;;2.42;100.00;101851.78;10588212;28;20070;-58
2021/11/12 06:40:34;;;;;;;45.20;28.17;;;;;;;2.27;100.00;101851.00;10587779;28;20138;-57
2021/11/12 06:51:01;;;;;;;46.60;28.52;;;;;;;2.11;100.00;101858.84;10571894;28;20055;-59
2021/11/12 06:56:04;;;;;;;48.78;28.77;;;;;;;2.10;100.00;101859.75;10586930;28;20047;-60
2021/11/12 07:01:06;;;;;;;48.60;28.90;;;;;;;2.07;100.00;101862.31;10586601;28;20040;-59
2021/11/12 07:06:09;;;;;;;52.35;28.50;;;;;;;2.08;100.00;101850.25;10586538;28;20127;-59
2021/11/12 07:11:15;;;;;;;50.35;29.80;;;;;;;2.02;100.00;101836.50;10586299;28;20399;-57
2021/11/12 07:16:18;;;;;;;59.05;30.20;;;;;;;1.98;100.00;101842.53;10585344;28;20055;-60
2021/11/12 07:21:22;;;;;;;49.80;28.55;;;;;;;2.14;100.00;101852.81;10586005;28;20093;-59
2021/11/12 07:26:34;;;;;;;49.25;30.05;;;;;;;2.00;100.00;101837.38;10585679;28;20052;-59
2021/11/12 07:31:39;;;;;;;56.45;30.42;;;;;;;1.97;100.00;101834.84;10567048;28;20051;-59
2021/11/12 07:36:52;;;;;;;50.90;30.15;;;;;;;2.00;100.00;101834.78;10585321;28;20051;-58
2021/11/12 07:47:17;;;;;;;45.92;28.73;;;;;;;2.18;100.00;101810.59;10584817;28;20043;-58
2021/11/12 07:52:22;;;;;;;48.67;29.33;;;;;;;2.14;100.00;101798.56;10584339;28;20055;-56
2021/11/12 07:57:24;;;;;;;54.53;31.02;;;;;;;2.41;100.00;101793.19;10584298;28;20051;-60
2021/11/12 08:02:27;;;;;;;52.88;30.92;;;;;;;2.23;100.00;101786.41;10583875;28;20047;-59
2021/11/12 08:07:32;;;;;;;58.70;31.40;;;;;;;2.51;100.00;101790.56;10584383;28;20048;-59
2021/11/12 08:12:38;;;;;;;68.85;36.40;;;;;;;2.01;100.00;101808.09;10583721;28;20039;-59
2021/11/12 08:23:16;;;;;;;57.70;33.30;;;;;;;2.96;100.00;101786.69;10583330;28;20503;-59
2021/11/12 08:28:46;;;;;;;65.93;34.80;;;;;;;3.11;100.00;101777.03;10582760;28;20419;-59
2021/11/12 08:33:51;;;;;;;62.72;34.28;;;;;;;2.59;100.00;101781.00;10581747;28;20055;-58
2021/11/12 08:44:03;;;;;;;74.50;36.38;;;;;;;2.48;100.00;101788.84;10582453;28;20114;-57
2021/11/12 08:49:13;;;;;;;68.05;36.05;;;;;;;2.67;100.00;101762.81;10583033;28;20043;-58
2021/11/12 08:54:22;;;;;;;75.15;37.05;;;;;;;2.63;100.00;101756.81;10582280;28;20044;-58
2021/11/12 08:59:25;;;;;;;80.40;36.28;;;;;;;2.87;100.00;101766.06;10582935;28;20051;-59
2021/11/12 09:04:28;;;;;;;72.80;35.97;;;;;;;2.75;100.00;101764.47;10582254;28;20043;-58
2021/11/12 09:09:30;;;;;;;68.40;35.67;;;;;;;2.90;100.00;101765.19;10563895;28;20051;-58
2021/11/12 09:14:36;;;;;;;76.00;37.72;;;;;;;2.94;100.00;101753.94;10581741;28;20495;-58
2021/11/12 09:20:01;;;;;;;76.68;36.90;;;;;;;2.74;100.00;101752.41;10581814;28;20054;-59
2021/11/12 09:25:02;;;;;;;72.30;37.05;;;;;;;3.16;100.00;101739.03;10581642;28;20044;-58
2021/11/12 09:30:06;;;;;;;66.05;38.28;;;;;;;2.97;100.00;101735.78;10581358;28;20500;-58
2021/11/12 09:35:09;;;;;;;67.78;34.72;;;;;;;3.18;100.00;101716.59;10581912;28;20050;-58
2021/11/12 09:40:11;;;;;;;78.00;38.03;;;;;;;3.42;100.00;101715.44;10589133;28;20063;-59
2021/11/12 09:45:15;;;;;;;63.65;34.40;;;;;;;3.88;100.00;101722.56;10590019;28;20050;-60
2021/11/12 09:50:22;;;;;;;68.65;36.33;;;;;;;3.88;100.00;101719.09;10571304;28;20487;-58
2021/11/12 09:55:24;;;;;;;68.82;35.55;;;;;;;3.69;100.00;101703.84;10589904;28;20039;-59
2021/11/12 10:00:29;;;;;;;61.42;33.22;;;;;;;3.84;100.00;101682.03;10589061;28;20047;-58
2021/11/12 10:05:42;;;;;;;62.47;32.45;;;;;;;4.03;100.00;101710.25;10589320;28;20079;-56
2021/11/12 10:10:50;;;;;;;62.08;33.95;;;;;;;4.15;100.00;101704.88;10588506;28;20502;-57
2021/11/12 10:16:00;;;;;;;62.75;35.00;;;;;;;4.64;100.00;101698.84;10588577;28;20051;-59
2021/11/12 10:21:03;;;;;;;56.85;33.55;;;;;;;5.11;100.00;101700.56;10588105;28;20093;-58
2021/11/12 10:26:06;;;;;;;57.03;31.60;;;;;;;5.19;100.00;101683.97;10588239;28;20055;-58
2021/11/12 10:31:15;;;;;;;62.05;34.17;;;;;;;5.03;100.00;101672.19;10587689;28;20399;-57
2021/11/12 10:36:18;;;;;;;61.72;35.67;;;;;;;4.90;100.00;101666.38;10587968;28;20051;-60
2021/11/12 10:41:29;;;;;;;54.60;31.85;;;;;;;5.50;100.00;101662.50;10587259;28;20047;-58
2021/11/12 10:46:41;;;;;;;54.80;33.25;;;;;;;5.53;100.00;101654.66;10587327;28;20058;-58
2021/11/12 10:51:54;;;;;;;61.17;35.05;;;;;;;5.01;100.00;101620.28;10586414;28;20044;-59
2021/11/12 10:56:57;;;;;;;53.80;32.10;;;;;;;5.98;100.00;101611.19;10587074;28;20399;-59
2021/11/12 11:01:59;;;;;;;51.40;30.63;;;;;;;6.80;100.00;101609.88;10586700;28;20044;-61
2021/11/12 11:07:19;;;;;;;58.55;33.67;;;;;;;7.24;97.36;101628.53;10586524;28;20108;-59
2021/11/12 11:12:33;;;;;;;52.33;30.30;;;;;;;6.59;100.00;101640.81;10568537;28;20054;-60
2021/11/12 11:17:38;;;;;;;53.03;32.28;;;;;;;5.68;100.00;101613.59;10586071;28;20407;-58
2021/11/12 11:22:49;;;;;;;52.78;31.48;;;;;;;5.93;100.00;101604.34;10585790;28;20044;-60
2021/11/12 11:27:54;;;;;;;52.70;30.45;;;;;;;6.20;100.00;101604.53;10586109;28;20047;-58
2021/11/12 11:32:56;;;;;;;55.33;32.80;;;;;;;5.90;100.00;101598.34;10585524;28;20048;-59
2021/11/12 11:37:58;;;;;;;56.00;31.98;;;;;;;6.19;100.00;101589.84;10567479;28;20051;-59
2021/11/12 11:43:01;;;;;;;55.50;31.42;;;;;;;5.90;100.00;101575.81;10584838;28;20039;-58
2021/11/12 11:48:04;;;;;;;52.58;30.65;;;;;;;6.47;98.99;101561.34;10567170;28;20048;-59
2021/11/12 11:53:42;;;;;;;53.20;33.10;;;;;;;6.33;100.00;101551.31;10584522;28;20044;-59
2021/11/12 11:58:47;;;;;;;50.63;32.25;;;;;;;6.69;99.86;101537.28;10565969;28;20060;-60
2021/11/12 12:04:07;;;;;;;50.42;31.98;;;;;;;6.60;97.73;101521.97;10565998;28;20043;-59
2021/11/12 12:09:14;;;;;;;54.13;33.53;;;;;;;6.77;97.92;101511.03;10584524;28;20047;-60
2021/11/12 12:14:20;;;;;;;59.78;32.90;;;;;;;7.10;97.81;101503.94;10583777;28;20047;-60
2021/11/12 12:19:46;;;;;;;55.88;34.55;;;;;;;6.76;97.71;101497.19;10566220;28;20047;-58
2021/11/12 13:25:07;;;;;;;49.95;31.13;;;;;;;7.19;96.02;101409.03;10581821;28;20044;-58
2021/11/12 13:30:10;;;;;;;49.80;31.33;;;;;;;7.18;96.25;101396.94;10581815;28;20048;-59
2021/11/12 13:35:12;;;;;;;51.90;30.73;;;;;;;7.22;97.90;101388.94;10581779;28;20052;-60
2021/11/12 13:40:14;;;;;;;53.85;31.85;;;;;;;7.27;97.76;101391.41;10581188;28;20044;-61
2021/11/12 13:45:22;;;;;;;48.65;28.77;;;;;;;7.15;96.52;101376.22;10581241;28;20501;-59
2021/11/12 13:50:25;;;;;;;50.15;30.50;;;;;;;7.11;98.10;101370.25;10580905;28;20050;-59
2021/11/12 13:55:37;;;;;;;54.00;31.17;;;;;;;7.18;98.33;101361.31;10581766;28;20050;-59
2021/11/12 14:00:39;;;;;;;47.10;29.95;;;;;;;7.07;98.67;101347.81;10581225;28;20047;-59
2021/11/12 14:06:09;;;;;;;48.88;31.38;;;;;;;6.86;99.23;101355.44;10581234;28;20096;-59
2021/11/12 14:11:17;;;;;;;50.28;30.85;;;;;;;7.01;100.00;101351.47;10578043;28;20372;-61
2021/11/12 14:16:31;;;;;;;50.03;31.40;;;;;;;7.01;99.50;101346.28;10581176;28;20044;-60
2021/11/12 14:22:06;;;;;;;49.00;30.67;;;;;;;6.92;100.00;101343.97;10580602;28;20101;-59
2021/11/12 14:48:36;;;;;;;50.47;29.15;;;;;;;6.67;100.00;101291.88;10587526;28;20050;-59
2021/11/12 14:53:50;;;;;;;40.15;27.55;;;;;;;6.74;100.00;101290.78;10587407;28;20040;-58
2021/11/12 14:59:03;;;;;;;43.35;29.27;;;;;;;6.59;100.00;101296.47;10587558;28;20052;-59
2021/11/12 15:04:05;;;;;;;44.47;28.00;;;;;;;6.61;100.00;101297.31;10586960;28;20054;-61
2021/11/12 15:09:16;;;;;;;41.35;27.17;;;;;;;6.57;100.00;101287.88;10586440;28;20071;-59
2021/11/12 15:14:29;;;;;;;44.17;26.90;;;;;;;6.78;100.00;101279.38;10586239;28;20075;-60
2021/11/12 15:19:39;;;;;;;44.33;27.10;;;;;;;6.53;100.00;101268.09;10585972;28;20392;-59
2021/11/12 15:35:10;;;;;;;45.40;27.17;;;;;;;6.53;100.00;101237.72;10584557;28;20484;-59
2021/11/12 15:50:52;;;;;;;45.55;29.40;;;;;;;6.37;100.00;101208.78;10584815;28;20100;-59
2021/11/12 15:56:25;;;;;;;48.67;29.10;;;;;;;6.30;100.00;101195.13;10569052;28;20043;-61
2021/11/12 16:28:02;;;;;;;53.05;31.67;;;;;;;6.21;100.00;101184.16;10583562;28;20040;-59
2021/11/12 16:33:02;;;;;;;55.33;32.75;;;;;;;6.16;100.00;101176.50;10582845;28;20066;-60
2021/11/12 16:38:39;;;;;;;54.65;32.22;;;;;;;6.19;100.00;101173.81;10582826;28;20479;-60
2021/11/12 17:15:01;;;;;;;44.40;28.53;;;;;;;6.23;100.00;101166.75;10582072;28;20052;-61
2021/11/12 17:46:52;;;;;;;41.55;26.33;;;;;;;6.30;100.00;101137.91;10566388;28;20044;-59
2021/11/12 17:52:14;;;;;;;34.15;23.58;;;;;;;6.41;100.00;101128.88;10581350;28;20062;-58
2021/11/12 18:02:43;;;;;;;37.75;23.67;;;;;;;6.40;100.00;101135.81;10588979;28;20050;-59
2021/11/12 18:08:15;;;;;;;35.35;23.02;;;;;;;6.50;100.00;101141.56;10589199;28;20051;-58
2021/11/12 21:46:54;;;;;;;28.17;14.85;;;;;;;7.66;100.00;101033.88;10589907;28;20169;-59
2021/11/12 21:51:59;;;;;;;20.60;14.10;;;;;;;7.79;100.00;101034.22;10589435;28;20047;-59
2021/11/12 21:57:01;;;;;;;27.55;15.30;;;;;;;7.80;100.00;101022.84;10589361;28;20047;-61
2021/11/12 22:02:04;;;;;;;23.55;16.60;;;;;;;7.67;100.00;101001.69;10589221;28;20054;-60
2021/11/12 22:07:07;;;;;;;23.98;16.90;;;;;;;7.73;100.00;101004.06;10588943;28;20047;-60
2021/11/12 22:12:09;;;;;;;24.05;17.88;;;;;;;7.74;100.00;100987.50;10588609;28;20047;-61
2021/11/12 22:17:13;;;;;;;25.83;16.80;;;;;;;7.77;100.00;100991.75;10588797;28;20348;-58
2021/11/12 22:22:16;;;;;;;20.98;14.10;;;;;;;7.78;100.00;100985.59;10588611;28;20127;-59
2021/11/12 22:27:18;;;;;;;29.00;18.38;;;;;;;7.77;100.00;100981.31;10587852;28;20047;-58
2021/11/12 22:32:21;;;;;;;23.13;16.30;;;;;;;7.86;100.00;100988.72;10587966;28;20399;-58
2021/11/12 22:37:24;;;;;;;29.30;17.42;;;;;;;7.80;100.00;100983.75;10587593;28;20518;-58
2021/11/12 22:42:27;;;;;;;28.75;18.00;;;;;;;7.84;100.00;100984.50;10588147;28;20097;-59
2021/11/12 22:47:29;;;;;;;25.10;16.30;;;;;;;7.88;100.00;100981.69;10569181;28;20044;-59
2021/11/12 22:52:32;;;;;;;25.05;16.83;;;;;;;7.89;100.00;100979.94;10570299;28;20055;-59
2021/11/12 22:57:35;;;;;;;28.67;17.48;;;;;;;7.92;100.00;100972.00;10587273;28;20054;-61
2021/11/12 23:02:37;;;;;;;28.52;18.25;;;;;;;7.89;100.00;100967.75;10586390;28;20422;-59
2021/11/12 23:07:39;;;;;;;25.10;17.50;;;;;;;7.89;100.00;100969.50;10586827;28;20047;-59
2021/11/12 23:12:42;;;;;;;29.88;17.80;;;;;;;7.87;100.00;100959.16;10586444;28;20073;-61
2021/11/12 23:17:44;;;;;;;26.77;18.90;;;;;;;7.90;100.00;100958.16;10586109;28;20071;-59
2021/11/12 23:22:47;;;;;;;32.13;20.38;;;;;;;7.80;100.00;100970.72;10586156;28;20051;-60
2021/11/12 23:27:50;;;;;;;34.33;22.17;;;;;;;7.74;100.00;100969.25;10585462;28;20435;-59
2021/11/12 23:32:52;;;;;;;31.00;20.15;;;;;;;7.68;100.00;100963.44;10585521;28;20044;-60
2021/11/12 23:37:54;;;;;;;38.13;23.48;;;;;;;7.50;100.00;100950.28;10585314;28;20048;-60
2021/11/12 23:42:57;;;;;;;39.97;24.20;;;;;;;7.60;100.00;100955.97;10585158;28;20395;-60
2021/11/12 23:47:59;;;;;;;40.67;25.20;;;;;;;7.61;100.00;100955.88;10584679;28;20044;-59
2021/11/12 23:53:01;;;;;;;32.28;22.25;;;;;;;7.69;100.00;100952.97;10584625;28;20050;-59
2021/11/12 23:58:05;;;;;;;45.17;26.55;;;;;;;7.62;100.00;100946.31;10566689;28;20388;-60
